Chicago Lansing, IL

4:53 AM CDT on October 17, 2017 (GMT -0500)
Lansing Municipal

Weather History for KIGQ - January, 2013

Change the Weather History Date:

Saturday, January 5, 2013

  Actual Average (KGYY) Record (KGYY)
Temperature  
Mean Temperature 27 °F -  
Max Temperature 37 °F 26 °F 55 °F (1998)
Min Temperature 17 °F 9 °F -14 °F (1999)
Degree Days  
Heating Degree Days 38    
Moisture  
Dew Point 25 °F    
Average Humidity 87    
Maximum Humidity 99    
Minimum Humidity 60    
Precipitation  
Precipitation 0.01 in - - ()
Sea Level Pressure  
Sea Level Pressure 30.14 in    
Wind  
Wind Speed 8 mph (SSW)    
Max Wind Speed 18 mph    
Max Gust Speed 26 mph    
Visibility 8 miles    
Events Rain , Snow    
Averages and records for this station are not official NWS values.
T = Trace of Precipitation, MM = Missing Value Source: NWS Daily Summary

Daily Weather History Graph

Daily Weather History Graph

Search for Another Location

Airport or City:

Trip Planner

Search our weather history database for the weather conditions in past years. The results will help you decide how hot, cold, wet, or windy it might be!

Date:

Astronomy

Jan. 05, 2013 Rise Set
Actual Time 7:16 AM CST 4:34 PM CST
Civil Twilight 6:45 AM CST 5:05 PM CST
Nautical Twilight 6:11 AM CST 5:40 PM CST
Astronomical Twilight 5:37 AM CST 6:14 PM CST
Moon 12:20 AM CST (1/5) 11:26 AM CST (1/5)
Length of Visible Light 10h 20m
Length of Day
9h 18m
Last Quarter, 44% of the Moon is Illuminated
Jan 5
Last Quarter
Jan 11
New
Jan 18
First Quarter
Jan 26
Full
Feb 3
Last Quarter

Hourly Weather History & Observations

Time (CST) Temp. Windchill Dew Point Humidity Pressure Visibility Wind Dir Wind Speed Gust Speed Precip Events Conditions
12:15 AM 20.8 °F 14.4 °F 17.8 °F 88% 30.22 in 10.0 mi SSW 4.6 mph - N/A   Clear
12:35 AM 20.1 °F 15.2 °F 17.8 °F 91% 30.22 in 10.0 mi SSW 3.5 mph - N/A   Clear
12:55 AM 21.7 °F - 19.2 °F 90% 30.21 in 10.0 mi Calm Calm - N/A   Clear
1:15 AM 21.6 °F 11.3 °F 19.0 °F 90% 30.24 in 10.0 mi SW 9.2 mph - N/A   Clear
1:35 AM 24.1 °F 14.4 °F 20.3 °F 85% 30.24 in 10.0 mi SW 9.2 mph - N/A   Clear
1:55 AM 22.8 °F 13.6 °F 19.2 °F 86% 30.25 in 10.0 mi SW 8.1 mph - N/A   Clear
2:15 AM 22.8 °F 13.6 °F 19.2 °F 86% 30.25 in 10.0 mi SW 8.1 mph - N/A   Clear
2:35 AM 23.0 °F 14.7 °F 19.2 °F 85% 30.25 in 10.0 mi SW 6.9 mph - N/A   Clear
2:55 AM 22.5 °F 15.1 °F 18.9 °F 86% 30.25 in 10.0 mi SW 5.8 mph - N/A   Clear
3:15 AM 19.4 °F 11.5 °F 16.3 °F 88% 30.25 in 10.0 mi South 5.8 mph - N/A   Clear
3:35 AM 19.6 °F 13.0 °F 16.9 °F 89% 30.25 in 10.0 mi South 4.6 mph - N/A   Clear
3:55 AM 18.5 °F 11.7 °F 15.8 °F 89% 30.25 in 10.0 mi South 4.6 mph - N/A   Clear
4:15 AM 19.6 °F 14.5 °F 17.1 °F 90% 30.23 in 10.0 mi South 3.5 mph - N/A   Clear
4:35 AM 20.1 °F 13.6 °F 17.4 °F 89% 30.23 in 10.0 mi South 4.6 mph - N/A   Clear
4:55 AM 17.6 °F 10.7 °F 15.8 °F 93% 30.23 in 10.0 mi SSW 4.6 mph - N/A   Clear
5:15 AM 19.4 °F 11.5 °F 16.7 °F 89% 30.23 in 10.0 mi SSW 5.8 mph - N/A   Clear
5:35 AM 19.0 °F 12.3 °F 16.3 °F 89% 30.23 in 10.0 mi South 4.6 mph - N/A   Clear
5:55 AM 18.5 °F - 15.8 °F 89% 30.21 in 10.0 mi Calm Calm - N/A   Clear
6:15 AM 19.4 °F 14.3 °F 15.8 °F 86% 30.21 in 10.0 mi SE 3.5 mph - N/A   Clear
6:35 AM 17.1 °F 6.6 °F 14.5 °F 90% 30.23 in 10.0 mi SSW 8.1 mph - N/A   Clear
6:55 AM 20.1 °F 10.3 °F 16.7 °F 87% 30.22 in 10.0 mi SSW 8.1 mph - N/A   Clear
7:15 AM 19.8 °F 11.9 °F 16.5 °F 87% 30.22 in 10.0 mi SSW 5.8 mph - N/A   Clear
7:35 AM 20.3 °F 10.6 °F 17.1 °F 87% 30.22 in 10.0 mi SSW 8.1 mph - N/A   Clear
7:55 AM 21.4 °F 11.9 °F 17.8 °F 86% 30.22 in 10.0 mi SSW 8.1 mph - N/A   Clear
8:15 AM 23.0 °F 14.7 °F 18.9 °F 84% 30.22 in 10.0 mi SSW 6.9 mph - N/A   Clear
8:35 AM 24.1 °F 17.0 °F 19.8 °F 84% 30.21 in 10.0 mi South 5.8 mph - N/A   Clear
8:55 AM 25.7 °F 18.0 °F 20.7 °F 81% 30.20 in 10.0 mi South 6.9 mph - N/A   Clear
9:15 AM 27.3 °F 18.4 °F 21.4 °F 78% 30.21 in 10.0 mi South 9.2 mph - N/A   Clear
9:35 AM 28.9 °F 20.4 °F 22.3 °F 76% 30.21 in 10.0 mi SSW 9.2 mph - N/A   Clear
9:55 AM 29.8 °F 20.3 °F 22.6 °F 75% 30.21 in 10.0 mi SSW 11.5 mph - N/A   Clear
10:15 AM 31.3 °F 23.3 °F 23.7 °F 74% 30.20 in 10.0 mi SSW 9.2 mph - N/A   Clear
10:55 AM 32.4 °F 25.3 °F 24.6 °F 73% 30.19 in 10.0 mi SSW 8.1 mph - N/A   Clear
11:15 AM 32.0 °F 23.0 °F 24.8 °F 75% 30.17 in 10.0 mi SSW 11.5 mph - N/A   Clear
11:35 AM 33.1 °F 24.4 °F 24.4 °F 71% 30.15 in 10.0 mi SSW 11.5 mph - N/A   Scattered Clouds
11:55 AM 34.7 °F 25.5 °F 24.3 °F 66% 30.14 in 10.0 mi SSW 13.8 mph - N/A   Clear
12:15 PM 37.4 °F 28.5 °F 24.6 °F 60% 30.13 in 10.0 mi SSW 15.0 mph - N/A   Clear
12:35 PM 35.8 °F 27.3 °F 24.3 °F 63% 30.11 in 10.0 mi SSW 12.7 mph - N/A   Mostly Cloudy
12:55 PM 35.6 °F 27.1 °F 24.1 °F 63% 30.11 in 10.0 mi SSW 12.7 mph - N/A   Overcast
1:15 PM 35.2 °F 27.1 °F 24.4 °F 65% 30.10 in 10.0 mi SSW 11.5 mph - N/A   Overcast
1:35 PM 35.2 °F 25.8 °F 24.6 °F 65% 30.09 in 10.0 mi SW 15.0 mph 18.4 mph N/A   Overcast
1:55 PM 35.1 °F 25.5 °F 25.2 °F 67% 30.10 in 10.0 mi SW 15.0 mph 21.9 mph N/A   Overcast
2:15 PM 34.5 °F 24.5 °F 26.6 °F 73% 30.10 in 7.0 mi SW 16.1 mph 20.7 mph N/A Snow Light Snow
2:35 PM 32.4 °F 25.3 °F 29.7 °F 90% 30.11 in 0.2 mi SW 8.1 mph 16.1 mph N/A Snow Snow
2:55 PM 32.0 °F 23.0 °F 30.7 °F 95% 30.10 in 1.8 mi SW 11.5 mph - N/A Snow Light Snow
3:15 PM 32.0 °F 24.8 °F 30.9 °F 96% 30.10 in 1.8 mi SW 8.1 mph - N/A Snow Light Snow
3:35 PM 32.0 °F 24.8 °F 31.1 °F 96% 30.09 in 4.0 mi SSW 8.1 mph - N/A Snow Light Snow
3:55 PM 32.2 °F 25.0 °F 31.1 °F 96% 30.08 in 5.0 mi SSW 8.1 mph - N/A   Overcast
4:15 PM 32.0 °F 24.2 °F 31.1 °F 96% 30.08 in 4.0 mi SSW 9.2 mph - N/A Snow Light Snow
4:35 PM 32.2 °F 25.0 °F 31.3 °F 96% 30.07 in 4.0 mi South 8.1 mph - N/A   Overcast
4:55 PM 32.2 °F 23.8 °F 31.5 °F 97% 30.05 in 5.0 mi South 10.4 mph - N/A   Overcast
5:15 PM 32.0 °F 23.0 °F 31.5 °F 98% 30.04 in 4.0 mi South 11.5 mph - N/A   Overcast
5:35 PM 32.2 °F 22.3 °F 31.5 °F 97% 30.05 in 3.0 mi South 13.8 mph 19.6 mph N/A   Overcast
5:55 PM 32.0 °F 23.0 °F 31.6 °F 99% 30.06 in 4.0 mi SSW 11.5 mph 18.4 mph N/A   Overcast
6:15 PM 32.4 °F 23.0 °F 31.8 °F 98% 30.06 in 5.0 mi SSW 12.7 mph - N/A   Overcast
6:35 PM 32.4 °F 24.0 °F 31.6 °F 97% 30.06 in 5.0 mi SSW 10.4 mph - N/A Snow Light Snow
6:55 PM 32.5 °F 23.7 °F 31.6 °F 96% 30.05 in 5.0 mi SSW 11.5 mph 17.3 mph 0.01 in Snow Light Snow
7:15 PM 32.9 °F 22.4 °F 31.8 °F 96% 30.05 in 5.0 mi SSW 16.1 mph - N/A Snow Light Snow
7:35 PM 33.8 °F 24.3 °F 32.0 °F 93% 30.05 in 4.0 mi SSW 13.8 mph 23.0 mph N/A Snow Light Snow
7:55 PM 32.9 °F 22.4 °F 31.8 °F 96% 30.04 in 5.0 mi SSW 16.1 mph 24.2 mph N/A   Overcast
8:15 PM 32.9 °F 22.0 °F 31.6 °F 95% 30.04 in 4.0 mi SSW 17.3 mph 20.7 mph N/A Snow Light Snow
8:35 PM 33.1 °F 22.6 °F 31.1 °F 92% 30.03 in 7.0 mi SSW 16.1 mph 21.9 mph N/A Rain Light Rain
8:55 PM 33.4 °F 22.7 °F 31.1 °F 91% 30.03 in 7.0 mi SSW 17.3 mph 25.3 mph N/A Snow Light Snow
9:15 PM 33.4 °F 22.3 °F 31.1 °F 91% 30.02 in 7.0 mi SW 18.4 mph 26.5 mph N/A Rain Light Rain
9:35 PM 33.6 °F 22.9 °F 31.3 °F 91% 30.02 in 7.0 mi SW 17.3 mph 26.5 mph N/A   Overcast
9:55 PM 33.8 °F 23.2 °F 31.6 °F 92% 30.01 in 7.0 mi SW 17.3 mph 23.0 mph N/A Snow Light Snow
10:15 PM 33.8 °F 23.2 °F 32.0 °F 93% 30.01 in 7.0 mi SW 17.3 mph - N/A Snow Light Snow
10:35 PM 34.0 °F 24.2 °F 32.0 °F 92% 30.00 in 10.0 mi SW 15.0 mph 21.9 mph N/A   Overcast
10:55 PM 34.0 °F 24.2 °F 32.0 °F 92% 30.00 in 7.0 mi SW 15.0 mph 21.9 mph N/A   Overcast
11:15 PM 34.2 °F 24.8 °F 32.0 °F 92% 29.99 in 10.0 mi SW 13.8 mph - N/A   Overcast
11:35 PM 34.2 °F 24.8 °F 32.0 °F 92% 29.98 in 10.0 mi SW 13.8 mph - N/A   Overcast
11:55 PM 34.0 °F 24.6 °F 32.0 °F 92% 29.97 in 10.0 mi SW 13.8 mph 20.7 mph N/A   Overcast